sensor_id;sensor_type;location;lat;lon;timestamp;P1;durP1;ratioP1;P2;durP2;ratioP2
70313;SDS011;57725;47.526;18.986;2023-05-10T00:00:30;1.90;;;1.50;;
70313;SDS011;57725;47.526;18.986;2023-05-10T00:02:57;1.70;;;1.35;;
70313;SDS011;57725;47.526;18.986;2023-05-10T00:05:25;1.67;;;1.25;;
70313;SDS011;57725;47.526;18.986;2023-05-10T00:07:51;6.05;;;1.50;;
70313;SDS011;57725;47.526;18.986;2023-05-10T00:10:16;2.03;;;1.20;;
70313;SDS011;57725;47.526;18.986;2023-05-10T00:12:42;2.03;;;1.38;;
70313;SDS011;57725;47.526;18.986;2023-05-10T00:15:12;1.88;;;1.17;;
70313;SDS011;57725;47.526;18.986;2023-05-10T00:17:37;1.50;;;1.38;;
70313;SDS011;57725;47.526;18.986;2023-05-10T00:20:03;2.95;;;1.38;;
70313;SDS011;57725;47.526;18.986;2023-05-10T00:22:30;2.00;;;1.52;;
70313;SDS011;57725;47.526;18.986;2023-05-10T00:24:55;2.00;;;1.33;;
70313;SDS011;57725;47.526;18.986;2023-05-10T00:27:21;1.80;;;1.25;;
70313;SDS011;57725;47.526;18.986;2023-05-10T00:29:46;1.40;;;1.05;;
70313;SDS011;57725;47.526;18.986;2023-05-10T00:32:14;1.88;;;1.30;;
70313;SDS011;57725;47.526;18.986;2023-05-10T00:34:42;2.40;;;1.42;;
70313;SDS011;57725;47.526;18.986;2023-05-10T00:37:07;1.95;;;1.30;;
70313;SDS011;57725;47.526;18.986;2023-05-10T00:39:35;1.98;;;1.58;;
70313;SDS011;57725;47.526;18.986;2023-05-10T00:42:01;1.50;;;1.10;;
70313;SDS011;57725;47.526;18.986;2023-05-10T00:44:26;1.33;;;1.02;;
70313;SDS011;57725;47.526;18.986;2023-05-10T00:46:54;1.55;;;1.30;;
70313;SDS011;57725;47.526;18.986;2023-05-10T00:49:19;2.00;;;1.70;;
70313;SDS011;57725;47.526;18.986;2023-05-10T00:51:53;2.38;;;1.55;;
70313;SDS011;57725;47.526;18.986;2023-05-10T00:54:18;1.88;;;1.55;;
70313;SDS011;57725;47.526;18.986;2023-05-10T00:56:44;2.78;;;1.85;;
70313;SDS011;57725;47.526;18.986;2023-05-10T00:59:14;4.30;;;1.77;;
70313;SDS011;57725;47.526;18.986;2023-05-10T01:01:45;2.25;;;1.40;;
70313;SDS011;57725;47.526;18.986;2023-05-10T01:04:14;2.10;;;1.48;;
70313;SDS011;57725;47.526;18.986;2023-05-10T01:06:40;2.05;;;1.85;;
70313;SDS011;57725;47.526;18.986;2023-05-10T01:09:11;2.28;;;1.58;;
70313;SDS011;57725;47.526;18.986;2023-05-10T01:11:38;2.75;;;1.70;;
70313;SDS011;57725;47.526;18.986;2023-05-10T01:14:04;2.10;;;1.52;;
70313;SDS011;57725;47.526;18.986;2023-05-10T01:16:34;1.98;;;1.70;;
70313;SDS011;57725;47.526;18.986;2023-05-10T01:19:24;2.80;;;2.10;;
70313;SDS011;57725;47.526;18.986;2023-05-10T01:28:02;2.55;;;1.90;;
70313;SDS011;57725;47.526;18.986;2023-05-10T01:33:52;2.30;;;1.70;;
70313;SDS011;57725;47.526;18.986;2023-05-10T01:36:29;1.98;;;1.70;;
70313;SDS011;57725;47.526;18.986;2023-05-10T01:39:02;2.45;;;1.77;;
70313;SDS011;57725;47.526;18.986;2023-05-10T01:41:49;2.38;;;1.70;;
70313;SDS011;57725;47.526;18.986;2023-05-10T01:47:10;3.05;;;1.70;;
70313;SDS011;57725;47.526;18.986;2023-05-10T01:49:41;1.98;;;1.60;;
70313;SDS011;57725;47.526;18.986;2023-05-10T01:52:15;2.15;;;1.83;;
70313;SDS011;57725;47.526;18.986;2023-05-10T01:55:05;2.70;;;1.60;;
70313;SDS011;57725;47.526;18.986;2023-05-10T01:57:38;1.85;;;1.30;;
70313;SDS011;57725;47.526;18.986;2023-05-10T02:00:07;2.22;;;1.50;;
70313;SDS011;57725;47.526;18.986;2023-05-10T02:02:38;3.50;;;1.60;;
70313;SDS011;57725;47.526;18.986;2023-05-10T02:05:13;1.88;;;1.50;;
70313;SDS011;57725;47.526;18.986;2023-05-10T02:07:39;2.28;;;1.52;;
70313;SDS011;57725;47.526;18.986;2023-05-10T02:10:07;2.20;;;1.50;;
70313;SDS011;57725;47.526;18.986;2023-05-10T02:12:38;3.67;;;1.83;;
70313;SDS011;57725;47.526;18.986;2023-05-10T02:15:09;2.35;;;1.60;;
70313;SDS011;57725;47.526;18.986;2023-05-10T02:17:41;2.20;;;1.80;;
70313;SDS011;57725;47.526;18.986;2023-05-10T02:20:10;2.85;;;1.80;;
70313;SDS011;57725;47.526;18.986;2023-05-10T02:22:37;1.90;;;1.70;;
70313;SDS011;57725;47.526;18.986;2023-05-10T02:25:05;2.50;;;1.80;;
70313;SDS011;57725;47.526;18.986;2023-05-10T02:27:33;2.35;;;1.67;;
70313;SDS011;57725;47.526;18.986;2023-05-10T02:30:00;1.50;;;1.38;;
70313;SDS011;57725;47.526;18.986;2023-05-10T02:32:30;2.22;;;1.70;;
70313;SDS011;57725;47.526;18.986;2023-05-10T02:34:55;1.52;;;1.40;;
70313;SDS011;57725;47.526;18.986;2023-05-10T02:37:22;1.83;;;1.20;;
70313;SDS011;57725;47.526;18.986;2023-05-10T02:39:52;2.50;;;1.33;;
70313;SDS011;57725;47.526;18.986;2023-05-10T02:42:21;1.95;;;1.50;;
70313;SDS011;57725;47.526;18.986;2023-05-10T02:44:50;1.73;;;1.60;;
70313;SDS011;57725;47.526;18.986;2023-05-10T02:47:21;2.58;;;1.55;;
70313;SDS011;57725;47.526;18.986;2023-05-10T02:49:47;2.28;;;1.55;;
70313;SDS011;57725;47.526;18.986;2023-05-10T02:52:14;2.17;;;1.50;;
70313;SDS011;57725;47.526;18.986;2023-05-10T02:54:45;1.90;;;1.30;;
70313;SDS011;57725;47.526;18.986;2023-05-10T02:57:17;2.05;;;1.50;;
70313;SDS011;57725;47.526;18.986;2023-05-10T02:59:50;1.60;;;1.30;;
70313;SDS011;57725;47.526;18.986;2023-05-10T03:02:20;2.28;;;1.48;;
70313;SDS011;57725;47.526;18.986;2023-05-10T03:04:46;1.90;;;1.50;;
70313;SDS011;57725;47.526;18.986;2023-05-10T03:07:14;2.10;;;1.73;;
70313;SDS011;57725;47.526;18.986;2023-05-10T03:09:40;3.08;;;1.85;;
70313;SDS011;57725;47.526;18.986;2023-05-10T03:17:33;1.70;;;1.60;;
70313;SDS011;57725;47.526;18.986;2023-05-10T03:20:09;2.97;;;1.63;;
70313;SDS011;57725;47.526;18.986;2023-05-10T03:22:38;3.03;;;1.95;;
70313;SDS011;57725;47.526;18.986;2023-05-10T03:25:16;2.13;;;1.67;;
70313;SDS011;57725;47.526;18.986;2023-05-10T03:27:45;2.40;;;1.77;;
70313;SDS011;57725;47.526;18.986;2023-05-10T03:30:12;2.08;;;1.50;;
70313;SDS011;57725;47.526;18.986;2023-05-10T03:32:47;2.17;;;1.70;;
70313;SDS011;57725;47.526;18.986;2023-05-10T03:35:15;2.33;;;1.63;;
70313;SDS011;57725;47.526;18.986;2023-05-10T03:37:40;1.75;;;1.45;;
70313;SDS011;57725;47.526;18.986;2023-05-10T03:40:06;2.58;;;2.20;;
70313;SDS011;57725;47.526;18.986;2023-05-10T03:42:32;2.55;;;1.77;;
70313;SDS011;57725;47.526;18.986;2023-05-10T03:44:57;1.98;;;1.42;;
70313;SDS011;57725;47.526;18.986;2023-05-10T03:47:22;1.77;;;1.50;;
70313;SDS011;57725;47.526;18.986;2023-05-10T03:49:48;2.63;;;1.77;;
70313;SDS011;57725;47.526;18.986;2023-05-10T03:52:14;2.28;;;1.67;;
70313;SDS011;57725;47.526;18.986;2023-05-10T03:54:41;2.60;;;1.98;;
70313;SDS011;57725;47.526;18.986;2023-05-10T03:57:07;2.80;;;1.75;;
70313;SDS011;57725;47.526;18.986;2023-05-10T03:59:33;2.17;;;1.60;;
70313;SDS011;57725;47.526;18.986;2023-05-10T04:01:58;3.00;;;2.03;;
70313;SDS011;57725;47.526;18.986;2023-05-10T04:04:28;2.72;;;2.20;;
70313;SDS011;57725;47.526;18.986;2023-05-10T04:06:59;2.60;;;1.45;;
70313;SDS011;57725;47.526;18.986;2023-05-10T04:09:24;3.50;;;1.88;;
70313;SDS011;57725;47.526;18.986;2023-05-10T04:11:52;1.95;;;1.50;;
70313;SDS011;57725;47.526;18.986;2023-05-10T04:14:18;2.28;;;1.70;;
70313;SDS011;57725;47.526;18.986;2023-05-10T04:16:52;2.30;;;1.70;;
70313;SDS011;57725;47.526;18.986;2023-05-10T04:19:17;2.47;;;1.65;;
70313;SDS011;57725;47.526;18.986;2023-05-10T04:21:45;2.47;;;1.98;;
70313;SDS011;57725;47.526;18.986;2023-05-10T04:24:13;2.65;;;2.30;;
70313;SDS011;57725;47.526;18.986;2023-05-10T04:26:39;2.30;;;1.73;;
70313;SDS011;57725;47.526;18.986;2023-05-10T04:29:04;3.42;;;2.58;;
70313;SDS011;57725;47.526;18.986;2023-05-10T04:31:29;2.72;;;1.98;;
70313;SDS011;57725;47.526;18.986;2023-05-10T04:33:55;1.92;;;1.60;;
70313;SDS011;57725;47.526;18.986;2023-05-10T04:36:20;2.40;;;1.83;;
70313;SDS011;57725;47.526;18.986;2023-05-10T04:38:46;2.25;;;1.65;;
70313;SDS011;57725;47.526;18.986;2023-05-10T04:41:11;2.55;;;1.95;;
70313;SDS011;57725;47.526;18.986;2023-05-10T04:43:37;2.88;;;1.73;;
70313;SDS011;57725;47.526;18.986;2023-05-10T04:46:03;2.17;;;1.75;;
70313;SDS011;57725;47.526;18.986;2023-05-10T04:48:32;3.58;;;1.90;;
70313;SDS011;57725;47.526;18.986;2023-05-10T04:50:57;1.92;;;1.63;;
70313;SDS011;57725;47.526;18.986;2023-05-10T04:55:59;2.20;;;1.70;;
70313;SDS011;57725;47.526;18.986;2023-05-10T04:58:27;2.00;;;1.80;;
70313;SDS011;57725;47.526;18.986;2023-05-10T05:01:07;2.75;;;1.80;;
70313;SDS011;57725;47.526;18.986;2023-05-10T05:03:36;1.98;;;1.70;;
70313;SDS011;57725;47.526;18.986;2023-05-10T05:06:04;2.30;;;2.00;;
70313;SDS011;57725;47.526;18.986;2023-05-10T05:08:30;2.63;;;1.60;;
70313;SDS011;57725;47.526;18.986;2023-05-10T05:10:58;1.98;;;1.70;;
70313;SDS011;57725;47.526;18.986;2023-05-10T05:13:26;2.85;;;1.40;;
70313;SDS011;57725;47.526;18.986;2023-05-10T05:15:54;2.00;;;1.60;;
70313;SDS011;57725;47.526;18.986;2023-05-10T05:18:20;2.13;;;1.85;;
70313;SDS011;57725;47.526;18.986;2023-05-10T05:20:45;3.55;;;1.90;;
70313;SDS011;57725;47.526;18.986;2023-05-10T05:23:11;2.13;;;1.70;;
70313;SDS011;57725;47.526;18.986;2023-05-10T05:25:36;2.05;;;1.73;;
70313;SDS011;57725;47.526;18.986;2023-05-10T05:28:04;2.60;;;2.17;;
70313;SDS011;57725;47.526;18.986;2023-05-10T05:30:29;2.67;;;1.98;;
70313;SDS011;57725;47.526;18.986;2023-05-10T05:32:57;4.28;;;2.05;;
70313;SDS011;57725;47.526;18.986;2023-05-10T05:35:28;2.72;;;1.70;;
70313;SDS011;57725;47.526;18.986;2023-05-10T05:37:53;1.92;;;1.48;;
70313;SDS011;57725;47.526;18.986;2023-05-10T05:40:19;2.10;;;1.80;;
70313;SDS011;57725;47.526;18.986;2023-05-10T05:42:47;2.78;;;2.28;;
70313;SDS011;57725;47.526;18.986;2023-05-10T05:45:15;2.13;;;1.90;;
70313;SDS011;57725;47.526;18.986;2023-05-10T05:47:43;2.80;;;1.67;;
70313;SDS011;57725;47.526;18.986;2023-05-10T05:50:09;2.47;;;1.95;;
70313;SDS011;57725;47.526;18.986;2023-05-10T05:52:37;2.58;;;1.83;;
70313;SDS011;57725;47.526;18.986;2023-05-10T05:55:02;2.15;;;1.73;;
70313;SDS011;57725;47.526;18.986;2023-05-10T05:57:31;2.33;;;2.05;;
70313;SDS011;57725;47.526;18.986;2023-05-10T05:59:56;2.05;;;1.92;;
70313;SDS011;57725;47.526;18.986;2023-05-10T06:02:21;2.22;;;1.77;;
70313;SDS011;57725;47.526;18.986;2023-05-10T06:04:50;2.38;;;2.17;;
70313;SDS011;57725;47.526;18.986;2023-05-10T06:07:15;2.22;;;2.03;;
70313;SDS011;57725;47.526;18.986;2023-05-10T06:09:43;1.88;;;1.73;;
70313;SDS011;57725;47.526;18.986;2023-05-10T06:12:11;2.28;;;1.77;;
70313;SDS011;57725;47.526;18.986;2023-05-10T06:14:36;2.45;;;1.92;;
70313;SDS011;57725;47.526;18.986;2023-05-10T06:17:02;2.88;;;2.00;;
70313;SDS011;57725;47.526;18.986;2023-05-10T06:19:32;1.95;;;1.75;;
70313;SDS011;57725;47.526;18.986;2023-05-10T06:21:57;2.08;;;1.75;;
70313;SDS011;57725;47.526;18.986;2023-05-10T06:24:25;2.70;;;2.28;;
70313;SDS011;57725;47.526;18.986;2023-05-10T06:26:52;2.55;;;2.00;;
70313;SDS011;57725;47.526;18.986;2023-05-10T06:29:19;2.80;;;2.20;;
70313;SDS011;57725;47.526;18.986;2023-05-10T06:31:47;2.55;;;2.05;;
70313;SDS011;57725;47.526;18.986;2023-05-10T06:34:15;2.55;;;2.00;;
70313;SDS011;57725;47.526;18.986;2023-05-10T06:36:40;2.53;;;1.95;;
70313;SDS011;57725;47.526;18.986;2023-05-10T06:39:08;2.97;;;2.28;;
70313;SDS011;57725;47.526;18.986;2023-05-10T06:41:34;2.45;;;2.08;;
70313;SDS011;57725;47.526;18.986;2023-05-10T06:44:02;2.35;;;1.85;;
70313;SDS011;57725;47.526;18.986;2023-05-10T06:46:30;2.92;;;2.22;;
70313;SDS011;57725;47.526;18.986;2023-05-10T06:48:56;3.92;;;1.80;;
70313;SDS011;57725;47.526;18.986;2023-05-10T06:51:23;3.13;;;2.10;;
70313;SDS011;57725;47.526;18.986;2023-05-10T06:53:57;2.27;;;1.90;;
70313;SDS011;57725;47.526;18.986;2023-05-10T06:56:24;2.83;;;2.30;;
70313;SDS011;57725;47.526;18.986;2023-05-10T06:58:51;2.45;;;2.03;;
70313;SDS011;57725;47.526;18.986;2023-05-10T07:01:16;3.03;;;2.30;;
70313;SDS011;57725;47.526;18.986;2023-05-10T07:03:41;2.63;;;2.40;;
70313;SDS011;57725;47.526;18.986;2023-05-10T07:06:11;2.38;;;2.17;;
70313;SDS011;57725;47.526;18.986;2023-05-10T07:08:39;2.50;;;2.25;;
70313;SDS011;57725;47.526;18.986;2023-05-10T07:11:07;2.38;;;2.00;;
70313;SDS011;57725;47.526;18.986;2023-05-10T07:13:33;2.83;;;2.03;;
70313;SDS011;57725;47.526;18.986;2023-05-10T07:16:01;2.33;;;2.13;;
70313;SDS011;57725;47.526;18.986;2023-05-10T07:18:27;2.83;;;2.15;;
70313;SDS011;57725;47.526;18.986;2023-05-10T07:20:52;2.65;;;2.45;;
70313;SDS011;57725;47.526;18.986;2023-05-10T07:23:17;3.33;;;2.38;;
70313;SDS011;57725;47.526;18.986;2023-05-10T07:25:46;2.58;;;2.38;;
70313;SDS011;57725;47.526;18.986;2023-05-10T07:28:15;3.15;;;2.25;;
70313;SDS011;57725;47.526;18.986;2023-05-10T07:30:41;2.63;;;2.30;;
70313;SDS011;57725;47.526;18.986;2023-05-10T07:33:10;2.85;;;2.40;;
70313;SDS011;57725;47.526;18.986;2023-05-10T07:35:37;2.28;;;2.05;;
70313;SDS011;57725;47.526;18.986;2023-05-10T07:38:05;2.90;;;2.50;;
70313;SDS011;57725;47.526;18.986;2023-05-10T07:40:30;2.33;;;2.10;;
70313;SDS011;57725;47.526;18.986;2023-05-10T07:42:56;2.63;;;1.83;;
70313;SDS011;57725;47.526;18.986;2023-05-10T07:45:22;3.10;;;2.22;;
70313;SDS011;57725;47.526;18.986;2023-05-10T07:47:48;2.15;;;1.92;;
70313;SDS011;57725;47.526;18.986;2023-05-10T07:50:13;2.25;;;2.05;;
70313;SDS011;57725;47.526;18.986;2023-05-10T07:52:48;2.30;;;2.05;;
70313;SDS011;57725;47.526;18.986;2023-05-10T07:55:19;4.47;;;1.83;;
70313;SDS011;57725;47.526;18.986;2023-05-10T07:57:46;3.10;;;2.13;;
70313;SDS011;57725;47.526;18.986;2023-05-10T08:00:16;2.38;;;2.17;;
70313;SDS011;57725;47.526;18.986;2023-05-10T08:02:45;3.08;;;2.10;;
70313;SDS011;57725;47.526;18.986;2023-05-10T08:05:13;2.70;;;2.13;;
70313;SDS011;57725;47.526;18.986;2023-05-10T08:07:39;2.17;;;1.98;;
70313;SDS011;57725;47.526;18.986;2023-05-10T08:10:05;2.90;;;2.35;;
70313;SDS011;57725;47.526;18.986;2023-05-10T08:12:31;3.08;;;2.30;;
70313;SDS011;57725;47.526;18.986;2023-05-10T08:15:01;2.35;;;2.15;;
70313;SDS011;57725;47.526;18.986;2023-05-10T08:17:26;2.30;;;2.10;;
70313;SDS011;57725;47.526;18.986;2023-05-10T08:19:52;2.70;;;2.40;;
70313;SDS011;57725;47.526;18.986;2023-05-10T08:22:19;2.33;;;1.80;;
70313;SDS011;57725;47.526;18.986;2023-05-10T08:24:47;1.80;;;1.70;;
70313;SDS011;57725;47.526;18.986;2023-05-10T08:27:15;3.22;;;2.25;;
70313;SDS011;57725;47.526;18.986;2023-05-10T08:29:40;2.50;;;2.28;;
70313;SDS011;57725;47.526;18.986;2023-05-10T08:32:06;2.75;;;2.35;;
70313;SDS011;57725;47.526;18.986;2023-05-10T08:34:31;2.80;;;2.17;;
70313;SDS011;57725;47.526;18.986;2023-05-10T08:36:57;2.58;;;2.05;;
70313;SDS011;57725;47.526;18.986;2023-05-10T08:39:24;2.42;;;2.13;;
70313;SDS011;57725;47.526;18.986;2023-05-10T08:41:50;2.50;;;2.13;;
70313;SDS011;57725;47.526;18.986;2023-05-10T08:44:19;2.67;;;2.47;;
70313;SDS011;57725;47.526;18.986;2023-05-10T08:46:46;3.08;;;2.00;;
70313;SDS011;57725;47.526;18.986;2023-05-10T08:49:20;2.72;;;2.05;;
70313;SDS011;57725;47.526;18.986;2023-05-10T08:51:50;2.55;;;2.10;;
70313;SDS011;57725;47.526;18.986;2023-05-10T08:54:19;2.50;;;2.30;;
70313;SDS011;57725;47.526;18.986;2023-05-10T08:56:46;2.50;;;2.28;;
70313;SDS011;57725;47.526;18.986;2023-05-10T08:59:17;2.67;;;2.20;;
70313;SDS011;57725;47.526;18.986;2023-05-10T09:01:43;3.97;;;2.67;;
70313;SDS011;57725;47.526;18.986;2023-05-10T09:04:10;2.25;;;2.05;;
70313;SDS011;57725;47.526;18.986;2023-05-10T09:06:37;2.85;;;2.20;;
70313;SDS011;57725;47.526;18.986;2023-05-10T09:09:02;2.47;;;2.10;;
70313;SDS011;57725;47.526;18.986;2023-05-10T09:11:31;2.83;;;2.45;;
70313;SDS011;57725;47.526;18.986;2023-05-10T09:13:57;3.10;;;2.00;;
70313;SDS011;57725;47.526;18.986;2023-05-10T09:16:23;2.10;;;1.90;;
70313;SDS011;57725;47.526;18.986;2023-05-10T09:18:48;2.83;;;2.33;;
70313;SDS011;57725;47.526;18.986;2023-05-10T09:21:18;2.63;;;2.40;;
70313;SDS011;57725;47.526;18.986;2023-05-10T09:23:47;2.40;;;2.20;;
70313;SDS011;57725;47.526;18.986;2023-05-10T09:26:17;2.55;;;2.13;;
70313;SDS011;57725;47.526;18.986;2023-05-10T09:28:54;3.50;;;2.30;;
70313;SDS011;57725;47.526;18.986;2023-05-10T09:31:22;2.20;;;1.83;;
70313;SDS011;57725;47.526;18.986;2023-05-10T09:33:50;2.88;;;2.13;;
70313;SDS011;57725;47.526;18.986;2023-05-10T09:36:18;2.28;;;2.08;;
70313;SDS011;57725;47.526;18.986;2023-05-10T09:38:47;3.53;;;2.53;;
70313;SDS011;57725;47.526;18.986;2023-05-10T09:41:23;4.68;;;1.90;;
70313;SDS011;57725;47.526;18.986;2023-05-10T09:43:55;2.65;;;2.13;;
70313;SDS011;57725;47.526;18.986;2023-05-10T09:46:23;2.30;;;2.10;;
70313;SDS011;57725;47.526;18.986;2023-05-10T09:48:49;2.42;;;2.13;;
70313;SDS011;57725;47.526;18.986;2023-05-10T09:51:20;2.60;;;2.15;;
70313;SDS011;57725;47.526;18.986;2023-05-10T09:54:08;2.33;;;2.00;;
70313;SDS011;57725;47.526;18.986;2023-05-10T09:56:35;2.45;;;2.10;;
70313;SDS011;57725;47.526;18.986;2023-05-10T09:59:05;2.15;;;1.95;;
70313;SDS011;57725;47.526;18.986;2023-05-10T10:01:31;2.15;;;1.80;;
70313;SDS011;57725;47.526;18.986;2023-05-10T10:03:57;3.33;;;2.75;;
70313;SDS011;57725;47.526;18.986;2023-05-10T10:06:25;3.30;;;2.28;;
70313;SDS011;57725;47.526;18.986;2023-05-10T10:08:57;2.42;;;2.22;;
70313;SDS011;57725;47.526;18.986;2023-05-10T10:11:23;3.08;;;2.63;;
70313;SDS011;57725;47.526;18.986;2023-05-10T10:13:49;3.05;;;2.40;;
70313;SDS011;57725;47.526;18.986;2023-05-10T10:16:18;3.28;;;1.90;;
70313;SDS011;57725;47.526;18.986;2023-05-10T10:18:44;2.58;;;2.38;;
70313;SDS011;57725;47.526;18.986;2023-05-10T10:21:10;2.50;;;2.25;;
70313;SDS011;57725;47.526;18.986;2023-05-10T10:23:35;2.22;;;2.03;;
70313;SDS011;57725;47.526;18.986;2023-05-10T10:26:04;3.03;;;2.50;;
70313;SDS011;57725;47.526;18.986;2023-05-10T10:30:56;2.38;;;2.10;;
70313;SDS011;57725;47.526;18.986;2023-05-10T10:36:15;2.10;;;1.90;;
70313;SDS011;57725;47.526;18.986;2023-05-10T10:47:00;2.47;;;2.00;;
70313;SDS011;57725;47.526;18.986;2023-05-10T10:49:27;2.53;;;2.33;;
70313;SDS011;57725;47.526;18.986;2023-05-10T10:54:51;2.65;;;2.10;;
70313;SDS011;57725;47.526;18.986;2023-05-10T10:57:25;2.42;;;2.20;;
70313;SDS011;57725;47.526;18.986;2023-05-10T10:59:51;2.20;;;2.00;;
70313;SDS011;57725;47.526;18.986;2023-05-10T11:02:43;2.25;;;2.05;;
70313;SDS011;57725;47.526;18.986;2023-05-10T11:15:56;2.35;;;2.15;;
70313;SDS011;57725;47.526;18.986;2023-05-10T11:21:00;2.17;;;1.88;;
70313;SDS011;57725;47.526;18.986;2023-05-10T11:26:11;3.03;;;2.33;;
70313;SDS011;57725;47.526;18.986;2023-05-10T11:28:49;3.00;;;2.03;;
70313;SDS011;57725;47.526;18.986;2023-05-10T11:31:18;3.08;;;2.20;;
70313;SDS011;57725;47.526;18.986;2023-05-10T11:33:50;2.58;;;2.10;;
70313;SDS011;57725;47.526;18.986;2023-05-10T11:36:21;2.30;;;2.10;;
70313;SDS011;57725;47.526;18.986;2023-05-10T11:38:48;2.08;;;1.88;;
70313;SDS011;57725;47.526;18.986;2023-05-10T11:41:17;2.20;;;2.00;;
70313;SDS011;57725;47.526;18.986;2023-05-10T11:43:45;2.67;;;2.28;;
70313;SDS011;57725;47.526;18.986;2023-05-10T11:46:12;2.03;;;1.83;;
70313;SDS011;57725;47.526;18.986;2023-05-10T11:48:41;2.08;;;1.80;;
70313;SDS011;57725;47.526;18.986;2023-05-10T11:51:10;2.53;;;2.20;;
70313;SDS011;57725;47.526;18.986;2023-05-10T11:53:36;2.10;;;1.90;;
70313;SDS011;57725;47.526;18.986;2023-05-10T11:56:05;2.28;;;1.70;;
70313;SDS011;57725;47.526;18.986;2023-05-10T11:58:32;2.30;;;2.10;;
70313;SDS011;57725;47.526;18.986;2023-05-10T12:01:04;2.03;;;1.83;;
70313;SDS011;57725;47.526;18.986;2023-05-10T12:03:34;2.38;;;2.17;;
70313;SDS011;57725;47.526;18.986;2023-05-10T12:06:00;2.00;;;1.80;;
70313;SDS011;57725;47.526;18.986;2023-05-10T12:08:31;2.60;;;2.15;;
70313;SDS011;57725;47.526;18.986;2023-05-10T12:11:06;2.00;;;1.77;;
70313;SDS011;57725;47.526;18.986;2023-05-10T12:13:43;3.58;;;1.98;;
70313;SDS011;57725;47.526;18.986;2023-05-10T12:18:46;2.05;;;1.73;;
70313;SDS011;57725;47.526;18.986;2023-05-10T12:21:13;2.70;;;2.35;;
70313;SDS011;57725;47.526;18.986;2023-05-10T12:23:40;2.47;;;2.15;;
70313;SDS011;57725;47.526;18.986;2023-05-10T12:26:07;1.75;;;1.65;;
70313;SDS011;57725;47.526;18.986;2023-05-10T12:28:36;2.58;;;2.10;;
70313;SDS011;57725;47.526;18.986;2023-05-10T12:31:02;3.22;;;1.90;;
70313;SDS011;57725;47.526;18.986;2023-05-10T12:33:34;2.65;;;1.92;;
70313;SDS011;57725;47.526;18.986;2023-05-10T12:36:02;3.20;;;2.42;;
70313;SDS011;57725;47.526;18.986;2023-05-10T12:41:06;1.95;;;1.80;;
70313;SDS011;57725;47.526;18.986;2023-05-10T12:43:32;2.85;;;1.58;;
70313;SDS011;57725;47.526;18.986;2023-05-10T12:46:19;2.03;;;1.45;;
70313;SDS011;57725;47.526;18.986;2023-05-10T12:48:44;2.45;;;2.25;;
70313;SDS011;57725;47.526;18.986;2023-05-10T12:51:14;2.00;;;1.80;;
70313;SDS011;57725;47.526;18.986;2023-05-10T12:53:44;1.58;;;1.48;;
70313;SDS011;57725;47.526;18.986;2023-05-10T12:56:10;2.10;;;1.90;;
70313;SDS011;57725;47.526;18.986;2023-05-10T12:58:36;2.38;;;2.15;;
70313;SDS011;57725;47.526;18.986;2023-05-10T13:01:04;1.95;;;1.75;;
70313;SDS011;57725;47.526;18.986;2023-05-10T13:03:30;2.10;;;1.90;;
70313;SDS011;57725;47.526;18.986;2023-05-10T13:05:57;2.00;;;1.48;;
70313;SDS011;57725;47.526;18.986;2023-05-10T13:08:25;2.00;;;1.80;;
70313;SDS011;57725;47.526;18.986;2023-05-10T13:10:58;2.03;;;1.83;;
70313;SDS011;57725;47.526;18.986;2023-05-10T13:13:23;1.90;;;1.70;;
70313;SDS011;57725;47.526;18.986;2023-05-10T13:15:48;2.22;;;1.67;;
70313;SDS011;57725;47.526;18.986;2023-05-10T13:18:16;2.08;;;1.85;;
70313;SDS011;57725;47.526;18.986;2023-05-10T13:20:41;2.40;;;1.80;;
70313;SDS011;57725;47.526;18.986;2023-05-10T13:23:09;2.28;;;2.00;;
70313;SDS011;57725;47.526;18.986;2023-05-10T13:25:36;1.60;;;1.50;;
70313;SDS011;57725;47.526;18.986;2023-05-10T13:28:04;3.28;;;1.90;;
70313;SDS011;57725;47.526;18.986;2023-05-10T13:30:32;1.98;;;1.67;;
70313;SDS011;57725;47.526;18.986;2023-05-10T13:33:00;2.20;;;1.90;;
70313;SDS011;57725;47.526;18.986;2023-05-10T13:35:25;2.33;;;1.50;;
70313;SDS011;57725;47.526;18.986;2023-05-10T13:37:56;1.90;;;1.73;;
70313;SDS011;57725;47.526;18.986;2023-05-10T13:40:22;2.10;;;1.75;;
70313;SDS011;57725;47.526;18.986;2023-05-10T13:42:50;1.38;;;1.27;;
70313;SDS011;57725;47.526;18.986;2023-05-10T13:45:18;1.50;;;1.40;;
70313;SDS011;57725;47.526;18.986;2023-05-10T13:47:45;1.50;;;1.40;;
70313;SDS011;57725;47.526;18.986;2023-05-10T13:50:11;1.75;;;1.65;;
70313;SDS011;57725;47.526;18.986;2023-05-10T13:52:49;2.55;;;1.65;;
70313;SDS011;57725;47.526;18.986;2023-05-10T13:55:15;1.42;;;1.33;;
70313;SDS011;57725;47.526;18.986;2023-05-10T13:57:42;1.92;;;1.33;;
70313;SDS011;57725;47.526;18.986;2023-05-10T14:00:10;1.60;;;1.50;;
70313;SDS011;57725;47.526;18.986;2023-05-10T14:02:36;1.80;;;1.40;;
70313;SDS011;57725;47.526;18.986;2023-05-10T14:05:04;2.13;;;1.38;;
70313;SDS011;57725;47.526;18.986;2023-05-10T14:07:30;1.80;;;1.50;;
70313;SDS011;57725;47.526;18.986;2023-05-10T14:09:55;1.75;;;1.30;;
70313;SDS011;57725;47.526;18.986;2023-05-10T14:12:23;2.08;;;1.60;;
70313;SDS011;57725;47.526;18.986;2023-05-10T14:14:48;2.45;;;1.63;;
70313;SDS011;57725;47.526;18.986;2023-05-10T14:17:17;1.70;;;1.50;;
70313;SDS011;57725;47.526;18.986;2023-05-10T14:19:42;1.55;;;1.45;;
70313;SDS011;57725;47.526;18.986;2023-05-10T14:22:08;1.70;;;1.38;;
70313;SDS011;57725;47.526;18.986;2023-05-10T14:24:33;1.30;;;1.20;;
70313;SDS011;57725;47.526;18.986;2023-05-10T14:26:59;2.08;;;1.52;;
70313;SDS011;57725;47.526;18.986;2023-05-10T14:29:25;2.55;;;1.50;;
70313;SDS011;57725;47.526;18.986;2023-05-10T14:31:52;2.05;;;1.33;;
70313;SDS011;57725;47.526;18.986;2023-05-10T14:34:18;2.25;;;1.70;;
70313;SDS011;57725;47.526;18.986;2023-05-10T14:36:43;2.50;;;1.45;;
70313;SDS011;57725;47.526;18.986;2023-05-10T14:39:11;1.83;;;1.15;;
70313;SDS011;57725;47.526;18.986;2023-05-10T14:41:38;1.98;;;1.48;;
70313;SDS011;57725;47.526;18.986;2023-05-10T14:44:05;1.58;;;1.48;;
70313;SDS011;57725;47.526;18.986;2023-05-10T14:46:31;1.77;;;1.27;;
70313;SDS011;57725;47.526;18.986;2023-05-10T14:48:59;1.75;;;1.65;;
70313;SDS011;57725;47.526;18.986;2023-05-10T14:51:24;1.40;;;1.17;;
70313;SDS011;57725;47.526;18.986;2023-05-10T14:53:50;1.48;;;1.38;;
70313;SDS011;57725;47.526;18.986;2023-05-10T14:56:15;1.30;;;1.20;;
70313;SDS011;57725;47.526;18.986;2023-05-10T14:58:40;1.30;;;1.20;;
70313;SDS011;57725;47.526;18.986;2023-05-10T15:01:06;1.63;;;1.50;;
70313;SDS011;57725;47.526;18.986;2023-05-10T15:03:34;1.30;;;1.10;;
70313;SDS011;57725;47.526;18.986;2023-05-10T15:05:59;1.70;;;1.25;;
70313;SDS011;57725;47.526;18.986;2023-05-10T15:08:27;1.40;;;1.08;;
70313;SDS011;57725;47.526;18.986;2023-05-10T15:10:53;1.77;;;1.30;;
70313;SDS011;57725;47.526;18.986;2023-05-10T15:13:20;1.92;;;0.95;;
70313;SDS011;57725;47.526;18.986;2023-05-10T15:15:48;1.63;;;1.30;;
70313;SDS011;57725;47.526;18.986;2023-05-10T15:18:13;1.90;;;1.02;;
70313;SDS011;57725;47.526;18.986;2023-05-10T15:20:41;2.63;;;1.50;;
70313;SDS011;57725;47.526;18.986;2023-05-10T15:23:08;1.80;;;1.13;;
70313;SDS011;57725;47.526;18.986;2023-05-10T15:25:34;1.48;;;1.27;;
70313;SDS011;57725;47.526;18.986;2023-05-10T15:28:04;1.77;;;1.42;;
70313;SDS011;57725;47.526;18.986;2023-05-10T15:30:30;1.38;;;1.13;;
70313;SDS011;57725;47.526;18.986;2023-05-10T15:33:00;1.27;;;1.10;;
70313;SDS011;57725;47.526;18.986;2023-05-10T15:35:27;1.30;;;1.15;;